createdAt,value
2022-11-10T00:00:04.250Z,5.05
2022-11-10T00:03:30.472Z,2.60
2022-11-10T00:06:36.070Z,4.63
2022-11-10T00:09:45.533Z,3.97
2022-11-10T00:12:55.135Z,5.40
2022-11-10T00:16:16.260Z,4.70
2022-11-10T00:19:21.397Z,4.38
2022-11-10T00:22:29.980Z,5.38
2022-11-10T00:25:37.434Z,4.70
2022-11-10T00:28:46.262Z,4.85
2022-11-10T00:32:00.469Z,5.50
2022-11-10T00:35:12.611Z,3.13
2022-11-10T00:38:17.598Z,4.73
2022-11-10T00:41:24.272Z,4.38
2022-11-10T00:44:36.053Z,4.18
2022-11-10T00:47:41.778Z,6.15
2022-11-10T00:50:48.737Z,3.92
2022-11-10T00:53:56.653Z,4.78
2022-11-10T00:57:03.665Z,3.42
2022-11-10T01:00:16.143Z,5.40
2022-11-10T01:03:24.095Z,3.85
2022-11-10T01:06:32.462Z,7.13
2022-11-10T01:09:37.813Z,4.43
2022-11-10T01:12:45.289Z,4.28
2022-11-10T01:15:53.384Z,4.18
2022-11-10T01:19:06.894Z,5.85
2022-11-10T01:22:12.429Z,4.35
2022-11-10T01:25:21.528Z,3.63
2022-11-10T01:28:37.183Z,3.63
2022-11-10T01:31:50.692Z,4.15
2022-11-10T01:34:57.391Z,4.55
2022-11-10T01:38:04.524Z,4.75
2022-11-10T01:41:10.823Z,5.50
2022-11-10T01:44:17.750Z,4.90
2022-11-10T01:47:25.611Z,7.40
2022-11-10T01:50:33.630Z,4.00
2022-11-10T01:53:44.003Z,6.80
2022-11-10T01:56:53.669Z,4.90
2022-11-10T01:59:59.069Z,4.45
2022-11-10T02:03:15.318Z,4.85
2022-11-10T02:06:28.113Z,4.13
2022-11-10T02:09:35.443Z,3.33
2022-11-10T02:12:41.287Z,6.03
2022-11-10T02:15:49.257Z,4.20
2022-11-10T02:18:59.979Z,5.30
2022-11-10T02:22:08.393Z,4.75
2022-11-10T02:25:15.199Z,2.63
2022-11-10T02:28:23.489Z,3.38
2022-11-10T02:31:32.134Z,4.25
2022-11-10T02:34:37.790Z,6.63
2022-11-10T02:37:49.563Z,4.90
2022-11-10T02:40:56.345Z,3.83
2022-11-10T02:44:03.165Z,4.18
2022-11-10T02:47:08.804Z,4.30
2022-11-10T02:50:13.775Z,3.88
2022-11-10T02:53:29.190Z,3.25
2022-11-10T02:56:38.958Z,7.75
2022-11-10T02:59:46.445Z,3.20
2022-11-10T03:03:02.199Z,6.95
2022-11-10T03:06:10.197Z,3.75
2022-11-10T03:09:18.036Z,4.50
2022-11-10T03:12:26.812Z,5.10
2022-11-10T03:15:32.414Z,8.77
2022-11-10T03:18:41.399Z,5.47
2022-11-10T03:21:47.169Z,4.47
2022-11-10T03:24:55.801Z,4.32
2022-11-10T03:28:02.325Z,3.78
2022-11-10T03:31:11.527Z,4.80
2022-11-10T03:34:17.430Z,4.93
2022-11-10T03:37:25.796Z,3.90
2022-11-10T03:40:50.766Z,7.00
2022-11-10T03:44:02.264Z,3.30
2022-11-10T03:47:07.201Z,3.47
2022-11-10T03:50:13.178Z,6.03
2022-11-10T03:53:18.682Z,7.32
2022-11-10T03:56:29.556Z,3.65
2022-11-10T03:59:37.976Z,4.30
2022-11-10T04:02:46.544Z,7.03
2022-11-10T04:06:05.452Z,5.88
2022-11-10T04:09:17.415Z,5.13
2022-11-10T04:12:37.762Z,6.45
2022-11-10T04:15:47.242Z,3.90
2022-11-10T04:18:55.221Z,3.55
2022-11-10T04:22:07.519Z,9.00
2022-11-10T04:25:17.488Z,3.42
2022-11-10T04:28:26.330Z,2.17
2022-11-10T04:31:32.850Z,5.10
2022-11-10T04:34:39.661Z,4.40
2022-11-10T04:37:47.556Z,3.53
2022-11-10T04:40:53.514Z,3.47
2022-11-10T04:44:01.593Z,5.05
2022-11-10T04:47:12.274Z,3.03
2022-11-10T04:50:18.733Z,3.63
2022-11-10T04:53:26.668Z,6.65
2022-11-10T04:56:32.446Z,2.92
2022-11-10T04:59:40.533Z,4.78
2022-11-10T05:02:45.774Z,4.85
2022-11-10T05:05:52.633Z,6.88
2022-11-10T05:08:57.638Z,5.13
2022-11-10T05:12:02.900Z,8.43
2022-11-10T05:15:13.444Z,4.25
2022-11-10T05:18:22.407Z,3.40
2022-11-10T05:21:28.378Z,3.33
2022-11-10T05:24:34.621Z,3.42
2022-11-10T05:27:50.069Z,4.70
2022-11-10T05:30:58.205Z,3.55
2022-11-10T05:34:03.706Z,5.03
2022-11-10T05:37:09.700Z,3.75
2022-11-10T05:40:14.796Z,3.38
2022-11-10T05:43:21.218Z,3.83
2022-11-10T05:46:31.708Z,3.28
2022-11-10T05:49:37.458Z,5.25
2022-11-10T05:52:50.034Z,3.60
2022-11-10T05:56:00.404Z,6.97
2022-11-10T05:59:05.454Z,4.15
2022-11-10T06:02:15.984Z,2.25
2022-11-10T06:05:26.841Z,6.03
2022-11-10T06:11:40.954Z,4.40
2022-11-10T06:14:46.616Z,3.03
2022-11-10T06:17:55.258Z,6.40
2022-11-10T06:21:02.417Z,6.60
2022-11-10T06:24:09.190Z,5.03
2022-11-10T06:27:15.098Z,4.28
2022-11-10T06:30:21.817Z,3.58
2022-11-10T06:33:31.250Z,4.95
2022-11-10T06:36:41.389Z,7.57
2022-11-10T06:39:53.308Z,2.42
2022-11-10T06:42:58.633Z,5.47
2022-11-10T06:46:08.617Z,6.85
2022-11-10T06:49:16.514Z,2.83
2022-11-10T06:52:22.347Z,4.07
2022-11-10T06:55:27.550Z,6.15
2022-11-10T06:58:33.326Z,3.75
2022-11-10T07:01:38.641Z,5.50
2022-11-10T07:04:46.998Z,5.43
2022-11-10T07:07:56.057Z,5.50
2022-11-10T07:14:09.425Z,8.10
2022-11-10T07:17:14.845Z,5.68
2022-11-10T07:20:26.505Z,6.45
2022-11-10T07:23:31.878Z,10.55
2022-11-10T07:26:38.572Z,6.68
2022-11-10T07:29:43.834Z,7.30
2022-11-10T07:32:50.442Z,7.28
2022-11-10T07:36:02.137Z,6.05
2022-11-10T07:39:09.061Z,9.55
2022-11-10T07:42:15.553Z,5.57
2022-11-10T07:45:20.725Z,4.97
2022-11-10T07:48:26.472Z,4.95
2022-11-10T07:51:35.372Z,6.32
2022-11-10T07:54:42.675Z,10.50
2022-11-10T07:57:50.027Z,7.55
2022-11-10T08:00:56.581Z,6.38
2022-11-10T08:04:03.810Z,7.85
2022-11-10T08:07:13.894Z,6.90
2022-11-10T08:10:19.404Z,7.75
2022-11-10T08:13:26.760Z,8.85
2022-11-10T08:16:33.050Z,8.95
2022-11-10T08:19:38.584Z,4.53
2022-11-10T08:22:46.690Z,8.23
2022-11-10T08:25:54.206Z,7.25
2022-11-10T08:28:59.167Z,11.57
2022-11-10T08:32:04.629Z,8.77
2022-11-10T08:35:10.289Z,9.15
2022-11-10T08:38:20.460Z,8.73
2022-11-10T08:41:28.810Z,6.20
2022-11-10T08:44:36.125Z,13.00
2022-11-10T08:47:44.710Z,8.93
2022-11-10T08:50:51.676Z,7.57
2022-11-10T08:54:01.022Z,10.68
2022-11-10T08:57:07.317Z,11.50
2022-11-10T09:00:13.465Z,6.78
2022-11-10T09:03:21.611Z,7.72
2022-11-10T09:06:31.142Z,11.60
2022-11-10T09:10:01.327Z,9.10
2022-11-10T09:13:11.689Z,8.85
2022-11-10T09:16:18.723Z,10.07
2022-11-10T09:19:24.498Z,8.57
2022-11-10T09:22:32.129Z,8.80
2022-11-10T09:25:41.000Z,11.68
2022-11-10T09:28:46.893Z,7.40
2022-11-10T09:31:53.412Z,7.05
2022-11-10T09:35:00.829Z,8.48
2022-11-10T09:38:13.062Z,10.05
2022-11-10T09:41:24.198Z,7.03
2022-11-10T09:44:30.873Z,6.82
2022-11-10T09:47:56.872Z,8.52
2022-11-10T09:51:04.804Z,8.40
2022-11-10T09:54:19.144Z,8.35
2022-11-10T09:57:32.161Z,11.27
2022-11-10T10:03:49.417Z,9.23
2022-11-10T10:07:16.070Z,5.80
2022-11-10T10:10:24.341Z,4.25
2022-11-10T10:13:36.931Z,9.43
2022-11-10T10:16:47.274Z,8.70
2022-11-10T10:20:00.610Z,7.57
2022-11-10T10:23:11.464Z,6.97
2022-11-10T10:26:18.385Z,7.68
2022-11-10T10:29:27.598Z,6.65
2022-11-10T10:32:33.272Z,6.75
2022-11-10T10:35:41.790Z,7.53
2022-11-10T10:38:53.325Z,8.82
2022-11-10T10:41:58.554Z,9.82
2022-11-10T10:45:21.273Z,8.18
2022-11-10T10:48:32.245Z,8.18
2022-11-10T10:51:40.677Z,7.40
2022-11-10T10:54:46.315Z,6.88
2022-11-10T10:58:01.301Z,11.70
2022-11-10T11:01:09.079Z,9.25
2022-11-10T11:04:31.168Z,6.68
2022-11-10T11:07:42.084Z,6.80
2022-11-10T11:10:50.780Z,7.18
2022-11-10T11:13:56.899Z,8.23
2022-11-10T11:17:03.440Z,5.78
2022-11-10T11:20:09.607Z,4.15
2022-11-10T11:23:30.898Z,4.43
2022-11-10T11:26:41.243Z,9.02
2022-11-10T11:30:02.097Z,8.20
2022-11-10T11:33:16.808Z,6.57
2022-11-10T11:36:28.122Z,5.70
2022-11-10T11:39:41.216Z,5.95
2022-11-10T11:42:53.064Z,6.65
2022-11-10T11:46:01.798Z,5.75
2022-11-10T11:49:20.762Z,10.82
2022-11-10T11:52:33.500Z,6.90
2022-11-10T11:55:47.890Z,5.22
2022-11-10T11:58:59.130Z,6.93
2022-11-10T12:02:22.904Z,5.70
2022-11-10T12:05:36.444Z,5.25
2022-11-10T12:08:46.665Z,8.48
2022-11-10T12:12:03.277Z,8.10
2022-11-10T12:15:17.778Z,10.02
2022-11-10T12:18:32.851Z,6.28
2022-11-10T12:21:53.315Z,9.20
2022-11-10T12:25:05.865Z,7.80
2022-11-10T12:28:18.605Z,6.47
2022-11-10T12:31:24.901Z,7.43
2022-11-10T12:34:35.051Z,7.28
2022-11-10T12:37:43.448Z,9.10
2022-11-10T12:40:51.755Z,7.38
2022-11-10T12:44:08.769Z,5.13
2022-11-10T12:47:20.031Z,9.40
2022-11-10T12:50:42.854Z,6.50
2022-11-10T12:53:51.538Z,10.77
2022-11-10T12:56:59.307Z,10.00
2022-11-10T13:00:12.891Z,7.18
2022-11-10T13:03:28.663Z,6.95
2022-11-10T13:06:36.062Z,8.05
2022-11-10T13:09:43.845Z,6.63
2022-11-10T13:13:01.163Z,9.02
2022-11-10T13:16:11.448Z,10.73
2022-11-10T13:19:39.304Z,7.45
2022-11-10T13:22:49.086Z,4.85
2022-11-10T13:25:56.673Z,5.50
2022-11-10T13:29:05.053Z,8.88
2022-11-10T13:32:26.052Z,5.60
2022-11-10T13:35:49.964Z,6.10
2022-11-10T13:39:21.947Z,6.72
2022-11-10T13:42:27.302Z,7.30
2022-11-10T13:45:37.265Z,6.90
2022-11-10T13:48:53.134Z,6.40
2022-11-10T13:52:06.616Z,5.03
2022-11-10T13:55:28.156Z,6.43
2022-11-10T13:58:40.704Z,5.47
2022-11-10T14:01:46.682Z,5.32
2022-11-10T14:04:54.662Z,4.43
2022-11-10T14:08:05.858Z,8.55
2022-11-10T14:11:18.455Z,5.30
2022-11-10T14:14:31.812Z,4.78
2022-11-10T14:17:39.647Z,9.88
2022-11-10T14:20:45.914Z,7.13
2022-11-10T14:23:53.544Z,6.85
2022-11-10T14:27:03.308Z,6.85
2022-11-10T14:30:25.057Z,7.15
2022-11-10T14:33:30.820Z,6.28
2022-11-10T14:36:37.176Z,4.55
2022-11-10T14:39:44.274Z,4.70
2022-11-10T14:42:50.835Z,7.18
2022-11-10T14:45:59.294Z,6.65
2022-11-10T14:49:05.705Z,8.88
2022-11-10T14:52:15.141Z,5.35
2022-11-10T14:55:22.549Z,6.75
2022-11-10T14:58:29.965Z,7.43
2022-11-10T15:01:44.792Z,5.85
2022-11-10T15:04:52.243Z,9.18
2022-11-10T15:08:01.075Z,9.85
2022-11-10T15:11:08.816Z,9.60
2022-11-10T15:14:31.425Z,8.60
2022-11-10T15:17:57.454Z,7.35
2022-11-10T15:21:07.183Z,7.72
2022-11-10T15:24:13.704Z,9.45
2022-11-10T15:27:45.136Z,11.93
2022-11-10T15:30:57.905Z,11.02
2022-11-10T15:34:08.081Z,6.97
2022-11-10T15:37:30.587Z,5.90
2022-11-10T15:40:47.220Z,11.65
2022-11-10T15:43:52.420Z,9.18
2022-11-10T15:46:58.664Z,7.40
2022-11-10T15:50:04.929Z,11.88
2022-11-10T15:53:22.755Z,10.82
2022-11-10T15:56:28.494Z,6.35
2022-11-10T15:59:40.021Z,7.60
2022-11-10T16:02:47.093Z,5.95
2022-11-10T16:05:53.270Z,10.82
2022-11-10T16:09:14.358Z,10.75
2022-11-10T16:12:22.464Z,11.70
2022-11-10T16:15:28.365Z,7.32
2022-11-10T16:18:34.153Z,10.77
2022-11-10T16:21:43.646Z,8.25
2022-11-10T16:24:52.079Z,8.27
2022-11-10T16:27:57.594Z,8.60
2022-11-10T16:31:03.708Z,12.20
2022-11-10T16:34:13.821Z,11.95
2022-11-10T16:37:19.564Z,9.25
2022-11-10T16:40:30.184Z,11.07
2022-11-10T16:43:36.868Z,7.25
2022-11-10T16:46:42.803Z,9.13
2022-11-10T16:49:51.030Z,8.70
2022-11-10T16:52:57.238Z,6.75
2022-11-10T16:56:05.512Z,9.88
2022-11-10T16:59:13.606Z,7.60
2022-11-10T17:02:25.905Z,8.50
2022-11-10T17:05:33.106Z,8.52
2022-11-10T17:08:39.142Z,14.15
2022-11-10T17:11:46.853Z,9.73
2022-11-10T17:14:52.176Z,8.57
2022-11-10T17:17:59.847Z,12.35
2022-11-10T17:21:10.198Z,10.30
2022-11-10T17:24:16.704Z,11.43
2022-11-10T17:27:26.514Z,8.82
2022-11-10T17:30:31.734Z,7.90
2022-11-10T17:33:38.033Z,8.73
2022-11-10T17:36:43.626Z,7.50
2022-11-10T17:39:56.644Z,13.85
2022-11-10T17:43:06.338Z,8.48
2022-11-10T17:46:11.736Z,7.00
2022-11-10T17:49:18.279Z,10.60
2022-11-10T17:52:24.565Z,8.98
2022-11-10T17:55:34.059Z,9.77
2022-11-10T17:58:46.873Z,9.07
2022-11-10T18:01:52.031Z,8.23
2022-11-10T18:04:57.778Z,9.68
2022-11-10T18:08:02.790Z,8.27
2022-11-10T18:11:09.959Z,10.68
2022-11-10T18:14:20.105Z,11.60
2022-11-10T18:17:25.864Z,8.13
2022-11-10T18:20:31.561Z,10.00
2022-11-10T18:23:39.894Z,9.32
2022-11-10T18:26:46.650Z,11.55
2022-11-10T18:29:59.761Z,9.38
2022-11-10T18:33:05.131Z,8.57
2022-11-10T18:36:11.804Z,8.73
2022-11-10T18:39:19.015Z,8.45
2022-11-10T18:42:24.809Z,9.35
2022-11-10T18:45:33.234Z,9.07
2022-11-10T18:48:42.675Z,10.80
2022-11-10T18:51:48.106Z,10.77
2022-11-10T18:54:56.626Z,12.18
2022-11-10T18:58:09.065Z,9.73
2022-11-10T19:01:17.976Z,13.73
2022-11-10T19:04:23.565Z,11.50
2022-11-10T19:07:39.980Z,9.68
2022-11-10T19:10:45.884Z,7.82
2022-11-10T19:13:53.078Z,9.20
2022-11-10T19:17:02.664Z,11.10
2022-11-10T19:20:10.673Z,7.25
2022-11-10T19:23:15.748Z,10.27
2022-11-10T19:26:23.147Z,7.95
2022-11-10T19:29:28.837Z,10.73
2022-11-10T19:32:42.946Z,12.80
2022-11-10T19:35:51.699Z,13.73
2022-11-10T19:39:01.465Z,9.98
2022-11-10T19:42:08.926Z,13.47
2022-11-10T19:45:18.741Z,9.98
2022-11-10T19:48:27.973Z,8.93
2022-11-10T19:51:36.684Z,11.65
2022-11-10T19:54:43.630Z,12.98
2022-11-10T19:57:49.333Z,11.35
2022-11-10T20:00:57.049Z,11.77
2022-11-10T20:04:13.197Z,12.13
2022-11-10T20:07:31.461Z,12.25
2022-11-10T20:10:37.757Z,15.40
2022-11-10T20:13:49.728Z,12.30
2022-11-10T20:20:06.127Z,9.38
2022-11-10T20:23:14.266Z,8.50
2022-11-10T20:26:22.131Z,10.15
2022-11-10T20:29:30.283Z,13.25
2022-11-10T20:32:39.905Z,11.55
2022-11-10T20:35:50.696Z,8.13
2022-11-10T20:38:58.066Z,9.30
2022-11-10T20:42:06.745Z,13.82
2022-11-10T20:45:15.402Z,11.32
2022-11-10T20:48:21.413Z,11.07
2022-11-10T20:51:30.602Z,9.75
2022-11-10T20:54:37.737Z,8.65
2022-11-10T20:57:48.132Z,16.13
2022-11-10T21:00:54.594Z,15.23
2022-11-10T21:03:59.858Z,16.75
2022-11-10T21:07:08.231Z,11.23
2022-11-10T21:10:13.324Z,13.35
2022-11-10T21:13:18.919Z,12.90
2022-11-10T21:16:24.462Z,9.93
2022-11-10T21:19:30.590Z,13.38
2022-11-10T21:22:46.811Z,13.57
2022-11-10T21:25:57.734Z,10.52
2022-11-10T21:29:10.648Z,11.93
2022-11-10T21:32:16.916Z,8.60
2022-11-10T21:35:25.242Z,12.80
2022-11-10T21:38:34.197Z,10.23
2022-11-10T21:41:40.906Z,12.43
2022-11-10T21:44:55.491Z,10.68
2022-11-10T21:48:02.663Z,14.40
2022-11-10T21:51:09.633Z,11.20
2022-11-10T21:54:17.951Z,14.70
2022-11-10T21:57:25.201Z,8.93
2022-11-10T22:00:30.724Z,10.25
2022-11-10T22:03:39.020Z,12.25
2022-11-10T22:06:59.040Z,14.27
2022-11-10T22:10:21.789Z,9.02
2022-11-10T22:13:40.400Z,9.98
2022-11-10T22:17:01.728Z,9.60
2022-11-10T22:20:07.029Z,11.77
2022-11-10T22:23:15.084Z,13.13
2022-11-10T22:26:23.452Z,9.13
2022-11-10T22:29:31.901Z,10.95
2022-11-10T22:32:38.031Z,11.75
2022-11-10T22:35:49.736Z,12.77
2022-11-10T22:38:59.090Z,9.23
2022-11-10T22:42:26.176Z,10.25
2022-11-10T22:45:35.087Z,7.88
2022-11-10T22:48:40.814Z,8.13
2022-11-10T22:51:47.030Z,8.68
2022-11-10T22:54:53.053Z,9.93
2022-11-10T22:58:01.241Z,10.32
2022-11-10T23:01:10.153Z,9.52
2022-11-10T23:04:16.141Z,9.63
2022-11-10T23:07:22.185Z,12.63
2022-11-10T23:10:31.392Z,13.10
2022-11-10T23:13:42.220Z,9.45
2022-11-10T23:16:51.954Z,8.57
2022-11-10T23:19:57.869Z,8.63
2022-11-10T23:23:07.637Z,8.98
2022-11-10T23:26:13.897Z,11.65
2022-11-10T23:29:24.850Z,7.75
2022-11-10T23:32:36.083Z,9.30
2022-11-10T23:35:44.265Z,7.00
2022-11-10T23:38:50.210Z,7.30
2022-11-10T23:41:58.609Z,8.23
2022-11-10T23:45:07.332Z,9.43
2022-11-10T23:48:18.610Z,9.38
2022-11-10T23:51:30.101Z,9.38
2022-11-10T23:54:35.905Z,7.95
2022-11-10T23:57:42.164Z,8.38
